Thursday, April 26, 2018, 5:34 AM EDT
Back to Local

KMQE, Milton Blue Hill Observ

Location: Milton, MA, United States Lat: 42.217
Local Time: 5:34 AM EDT ( 9:34 GMT) Lon: -71.117
Time Zone: US/Eastern Elev: 629 ft

Show me the last for .
Show Decoded

2018-04-26 04:56 METAR KMQE 260856Z AUTO 16008KT 12/12 A2956 RMK AO1 SLP021 P0003 60003 T01220122
                 56017 =
2018-04-26 03:56 METAR KMQE 260756Z AUTO 17007KT 12/12 A2958 RMK AO1 SLP026 T01220122 =
2018-04-26 02:56 METAR KMQE 260656Z AUTO 17008KT 12/12 A2959 RMK AO1 SLP031 T01220122 =
2018-04-26 01:56 METAR KMQE 260556Z AUTO 18009KT 13/13 A2961 RMK AO1 SLP038 60031 T01280128 10128
                 20122 56025 =
2018-04-26 00:56 METAR KMQE 260456Z AUTO 16009KT 13/13 A2963 RMK AO1 SLP044 T01280128 401390083 =
2018-04-25 23:56 METAR KMQE 260356Z AUTO 15010KT 12/12 A2966 RMK AO1 SLP054 P0004 T01220122 =
2018-04-25 22:56 METAR KMQE 260256Z AUTO 14007KT 12/12 A2969 RMK AO1 SLP063 P0002 60027 T01220122
                 58017 =
2018-04-25 21:56 METAR KMQE 260156Z AUTO 15010KT 12/12 A2971 RMK AO1 SLP072 P0003 T01220122 =
2018-04-25 20:56 METAR KMQE 260056Z AUTO 16011KT 12/12 A2974 RMK AO1 SLP081 P0022 T01220122 =
2018-04-25 19:56 METAR KMQE 252356Z AUTO 17013KT 12/12 A2974 RMK AO1 SLP082 P0003 60050 T01220122
                 10122 20117 56014 =
2018-04-25 18:56 METAR KMQE 252256Z AUTO 16015G19KT 12/12 A2974 RMK AO1 SLP082 P0002 T01220122 =
2018-04-25 17:56 METAR KMQE 252156Z AUTO 15012G20KT 12/12 A2977 RMK AO1 SLP092 P0019 T01220122 =
2018-04-25 16:56 METAR KMQE 252056Z AUTO 11014G23KT 12/12 A2978 RMK AO1 PK WND 11027/2044 SLP096
                 P0016 60026 T01220122 58042 =
2018-04-25 15:56 METAR KMQE 251956Z AUTO 14016G27KT 12/12 A2983 RMK AO1 PK WND 14028/1930 SLP111
                 P0004 T01220122 =
2018-04-25 14:56 METAR KMQE 251856Z AUTO 14013G22KT 12/12 A2987 RMK AO1 PK WND 13027/1757 SLP125
                 P0006 T01220122 =
2018-04-25 13:56 METAR KMQE 251756Z AUTO 13017G25KT 12/12 A2991 RMK AO1 PK WND 13026/1657 SLP138
                 P0003 60010 T01220122 10139 20094 56038 =
2018-04-25 12:56 METAR KMQE 251656Z AUTO 14019G27KT 13/12 A2994 RMK AO1 PK WND 13027/1655 SLP151
                 T01280122 =
2018-04-25 11:56 METAR KMQE 251556Z AUTO 15017G23KT 13/11 A2998 RMK AO1 SLP165 T01330111 =
2018-04-25 10:56 METAR KMQE 251456Z AUTO 14012G20KT 13/12 A3002 RMK AO1 SLP178 60007 T01280122
                 57024 =
2018-04-25 09:56 METAR KMQE 251356Z AUTO 14012G21KT 11/11 A3004 RMK AO1 SLP186 P0003 T01110111 =
2018-04-25 08:56 METAR KMQE 251256Z AUTO 13013G20KT 10/10 A3007 RMK AO1 SLP195 P0004 T01000100 =
2018-04-25 07:56 METAR KMQE 251156Z AUTO 14010KT 09/09 A3009 RMK AO1 SLP203 P0002 60005 70005
                 T00940094 10094 20083 58005 =
2018-04-25 06:56 METAR KMQE 251056Z AUTO 14009KT 09/08 A3011 RMK AO1 SLP208 P0003 T00890083 =
2018-04-25 05:56 METAR KMQE 250956Z AUTO 14011KT 09/07 A3011 RMK AO1 SLP207 T00890067 =

Support USWX by starting your Amazon purchase here.